Terminal Aerodrome Forecast
Issued by NWS

Home | Current Version | Previous Version | Text Only | Print | Product List | Glossary On
Versions: 1 2 3 4 5 6 7 8 9 10 11 12 13 14 15 16 17 18 19 20 21 22 23 24 25 26 27 28 29 30 31 32 33 34 35 36 37 38
000
FTUS45 KPSR 051120
TAFIWA
TAF
KIWA 051120Z 0512/0612 13007KT P6SM VCSH SCT070 BKN100 BKN150
     FM051800 17006KT P6SM SCT070 SCT120 SCT150
     FM052100 25008KT P6SM FEW070 SCT100
     FM060700 14007KT P6SM FEW100 BKN250
      AMD LTD TO CLD VIS AND WIND TIL 051300=

USA.gov is the U.S. government's official web portal to all federal, state and local government web resources and services.